Time;durP1;ratioP1;P1;durP2;ratioP2;P2;SDS_P1;SDS_P2;PMS_P1;PMS_P2;Temp;Humidity;BMP_temperature;BMP_pressure;BME280_temperature;BME280_humidity;BME280_pressure;Samples;Min_cycle;Max_cycle;Signal;HPM_P1;HPM_P2
2022/11/19 00:00:46;;;;;;;;;;;;;;;;;;5014397;28;19914;-66
2022/11/19 00:03:12;;;;;;;;;;;;;;;;;;5013239;28;19918;-65
2022/11/19 00:05:38;;;;;;;;;;;;;;;;;;5017053;28;19917;-67
2022/11/19 00:08:04;;;;;;;;;;;;;;;;;;5025564;28;19917;-67
2022/11/19 00:10:29;;;;;;;;;;;;;;;;;;5032008;28;19993;-66
2022/11/19 00:12:55;;;;;;;;;;;;;;;;;;5014239;28;20344;-66
2022/11/19 00:15:21;;;;;;;;;;;;;;;;;;5014349;28;20398;-66
2022/11/19 00:17:46;;;;;;;;;;;;;;;;;;5014329;28;19976;-65
2022/11/19 00:20:11;;;;;;;;;;;;;;;;;;5014257;28;20359;-65
2022/11/19 00:22:37;;;;;;;;;;;;;;;;;;5013879;28;19921;-66
2022/11/19 00:25:02;;;;;;;;;;;;;;;;;;4972030;28;1223014;-66
2022/11/19 00:27:29;;;;;;;;;;;;;;;;;;5028503;28;19917;-66
2022/11/19 00:29:54;;;;;;;;;;;;;;;;;;5035028;28;20043;-66
2022/11/19 00:32:20;;;;;;;;;;;;;;;;;;5034823;28;20356;-66
2022/11/19 00:34:45;;;;;;;;;;;;;;;;;;5034889;28;19912;-65
2022/11/19 00:37:10;;;;;;;;;;;;;;;;;;5034619;28;19917;-66
2022/11/19 00:39:35;;;;;;;;;;;;;;;;;;5034853;28;20008;-65
2022/11/19 00:42:01;;;;;;;;;;;;;;;;;;5033779;28;19952;-65
2022/11/19 00:44:26;;;;;;;;;;;;;;;;;;5031396;28;19941;-66
2022/11/19 00:46:52;;;;;;;;;;;;;;;;;;5032109;28;19942;-65
2022/11/19 00:49:17;;;;;;;;;;;;;;;;;;5014790;28;19917;-68
2022/11/19 00:51:42;;;;;;;;;;;;;;;;;;5014449;28;19975;-66
2022/11/19 00:54:08;;;;;;;;;;;;;;;;;;5030246;28;19913;-68
2022/11/19 00:56:33;;;;;;;;;;;;;;;;;;5033991;28;19921;-65
2022/11/19 00:58:58;;;;;;;;;;;;;;;;;;5031846;28;19913;-68
2022/11/19 01:01:24;;;;;;;;;;;;;;;;;;5033495;28;19923;-69
2022/11/19 01:03:50;;;;;;;;;;;;;;;;;;5033840;28;19913;-68
2022/11/19 01:06:17;;;;;;;;;;;;;;;;;;5033626;28;19913;-67
2022/11/19 01:08:42;;;;;;;;;;;;;;;;;;5032000;28;20359;-69
2022/11/19 01:11:09;;;;;;;;;;;;;;;;;;5033765;28;19917;-68
2022/11/19 01:13:35;;;;;;;;;;;;;;;;;;5033618;28;20291;-66
2022/11/19 01:16:10;;;;;;;;;;;;;;;;;;5033681;28;19913;-66
2022/11/19 01:18:36;;;;;;;;;;;;;;;;;;5031356;28;19923;-68
2022/11/19 01:21:02;;;;;;;;;;;;;;;;;;5033363;28;19916;-69
2022/11/19 01:23:28;;;;;;;;;;;;;;;;;;5033353;28;19913;-68
2022/11/19 01:25:53;;;;;;;;;;;;;;;;;;5033212;28;19921;-66
2022/11/19 01:28:18;;;;;;;;;;;;;;;;;;5033427;28;20372;-70
2022/11/19 01:30:44;;;;;;;;;;;;;;;;;;5033483;28;19974;-69
2022/11/19 01:33:10;;;;;;;;;;;;;;;;;;5033287;28;19913;-64
2022/11/19 01:35:35;;;;;;;;;;;;;;;;;;5033139;28;19967;-65
2022/11/19 01:38:01;;;;;;;;;;;;;;;;;;5032056;28;19917;-67
2022/11/19 01:40:27;;;;;;;;;;;;;;;;;;5033213;28;19921;-68
2022/11/19 01:42:53;;;;;;;;;;;;;;;;;;5033183;28;19966;-68
2022/11/19 01:45:33;;;;;;;;;;;;;;;;;;5033220;28;20015;-66
2022/11/19 01:48:01;;;;;;;;;;;;;;;;;;5031354;28;19912;-65
2022/11/19 01:50:27;;;;;;;;;;;;;;;;;;5032901;28;19959;-68
2022/11/19 01:52:53;;;;;;;;;;;;;;;;;;5030394;28;19912;-69
2022/11/19 01:55:19;;;;;;;;;;;;;;;;;;5033127;28;20058;-64
2022/11/19 01:57:44;;;;;;;;;;;;;;;;;;5032943;28;20302;-65
2022/11/19 02:00:10;;;;;;;;;;;;;;;;;;5032694;28;19959;-64
2022/11/19 02:02:35;;;;;;;;;;;;;;;;;;5032901;28;19919;-65
2022/11/19 02:05:01;;;;;;;;;;;;;;;;;;5032657;28;19913;-65
2022/11/19 02:07:30;;;;;;;;;;;;;;;;;;5032717;28;19913;-64
2022/11/19 02:09:56;;;;;;;;;;;;;;;;;;5030465;28;19917;-65
2022/11/19 02:12:24;;;;;;;;;;;;;;;;;;5032608;28;19913;-66
2022/11/19 02:15:05;;;;;;;;;;;;;;;;;;5032745;28;19913;-65
2022/11/19 02:17:53;;;;;;;;;;;;;;;;;;5032339;28;19915;-65
2022/11/19 02:20:19;;;;;;;;;;;;;;;;;;5020589;28;19913;-64
2022/11/19 02:22:47;;;;;;;;;;;;;;;;;;5032526;28;19913;-64
2022/11/19 02:25:31;;;;;;;;;;;;;;;;;;5032408;28;19920;-65
2022/11/19 02:27:56;;;;;;;;;;;;;;;;;;5031490;28;20008;-68
2022/11/19 02:30:21;;;;;;;;;;;;;;;;;;5032721;28;19928;-64
2022/11/19 02:32:57;;;;;;;;;;;;;;;;;;5032284;28;20382;-65
2022/11/19 02:35:48;;;;;;;;;;;;;;;;;;5031155;28;19913;-65
2022/11/19 02:38:32;;;;;;;;;;;;;;;;;;5027738;28;19913;-64
2022/11/19 02:41:32;;;;;;;;;;;;;;;;;;5030348;28;20327;-64
2022/11/19 02:44:57;;;;;;;;;;;;;;;;;;5031675;28;20075;-65
2022/11/19 02:46:36;;;;;;;;;;;;;;;;;;5029878;28;20256;-64
2022/11/19 02:49:02;;;;;;;;;;;;;;;;;;5032599;28;19917;-65
2022/11/19 02:51:28;;;;;;;;;;;;;;;;;;5032374;28;19913;-67
2022/11/19 02:53:54;;;;;;;;;;;;;;;;;;5029648;28;19919;-67
2022/11/19 02:56:38;;;;;;;;;;;;;;;;;;5032202;28;20322;-69
2022/11/19 03:04:32;;;;;;;;;;;;;;;;;;5032312;28;19959;-68
2022/11/19 03:06:59;;;;;;;;;;;;;;;;;;5032288;28;19913;-65
2022/11/19 03:09:25;;;;;;;;;;;;;;;;;;5032336;28;20352;-70
2022/11/19 03:11:56;;;;;;;;;;;;;;;;;;5032324;28;19967;-69
2022/11/19 03:17:22;;;;;;;;;;;;;;;;;;5032000;28;20007;-68
2022/11/19 03:19:49;;;;;;;;;;;;;;;;;;5032052;28;19913;-64
2022/11/19 03:22:20;;;;;;;;;;;;;;;;;;5029424;28;19919;-68
2022/11/19 03:24:49;;;;;;;;;;;;;;;;;;5035734;28;19924;-68
2022/11/19 03:27:24;;;;;;;;;;;;;;;;;;5032942;28;20326;-69
2022/11/19 03:29:52;;;;;;;;;;;;;;;;;;5035282;28;20372;-67
2022/11/19 03:32:20;;;;;;;;;;;;;;;;;;5035486;28;19956;-69
2022/11/19 03:34:47;;;;;;;;;;;;;;;;;;5035591;28;19909;-68
2022/11/19 03:37:13;;;;;;;;;;;;;;;;;;5035402;28;20008;-65
2022/11/19 03:39:39;;;;;;;;;;;;;;;;;;5035455;28;19920;-68
2022/11/19 03:42:05;;;;;;;;;;;;;;;;;;5035343;28;20290;-69
2022/11/19 03:44:33;;;;;;;;;;;;;;;;;;5035044;28;20019;-67
2022/11/19 03:47:06;;;;;;;;;;;;;;;;;;5035182;28;19913;-68
2022/11/19 03:49:33;;;;;;;;;;;;;;;;;;5035234;28;19964;-67
2022/11/19 03:52:04;;;;;;;;;;;;;;;;;;5035155;28;19920;-68
2022/11/19 03:54:30;;;;;;;;;;;;;;;;;;5035061;28;19921;-68
2022/11/19 03:56:56;;;;;;;;;;;;;;;;;;5035188;28;19913;-66
2022/11/19 03:59:22;;;;;;;;;;;;;;;;;;5034804;28;19924;-67
2022/11/19 04:01:49;;;;;;;;;;;;;;;;;;5035008;28;19913;-64
2022/11/19 04:06:58;;;;;;;;;;;;;;;;;;5032687;28;19920;-65
2022/11/19 04:09:23;;;;;;;;;;;;;;;;;;5034799;28;19913;-66
2022/11/19 04:11:48;;;;;;;;;;;;;;;;;;5034707;28;20276;-64
2022/11/19 04:14:14;;;;;;;;;;;;;;;;;;5034408;28;19913;-66
2022/11/19 04:16:39;;;;;;;;;;;;;;;;;;5034650;28;19919;-65
2022/11/19 04:19:04;;;;;;;;;;;;;;;;;;5034553;28;20008;-64
2022/11/19 04:21:30;;;;;;;;;;;;;;;;;;5034445;28;19937;-66
2022/11/19 04:23:55;;;;;;;;;;;;;;;;;;5034517;28;19917;-67
2022/11/19 04:26:20;;;;;;;;;;;;;;;;;;5032930;28;19921;-64
2022/11/19 04:28:46;;;;;;;;;;;;;;;;;;5034204;28;20004;-65
2022/11/19 04:31:11;;;;;;;;;;;;;;;;;;5034340;28;20280;-65
2022/11/19 04:33:36;;;;;;;;;;;;;;;;;;5033899;28;19917;-64
2022/11/19 04:36:02;;;;;;;;;;;;;;;;;;5033627;28;19999;-64
2022/11/19 04:38:27;;;;;;;;;;;;;;;;;;5034284;28;19963;-64
2022/11/19 04:40:52;;;;;;;;;;;;;;;;;;5034063;28;19913;-64
2022/11/19 04:43:18;;;;;;;;;;;;;;;;;;5034158;28;19920;-65
2022/11/19 04:45:43;;;;;;;;;;;;;;;;;;5034044;28;19916;-67
2022/11/19 04:48:08;;;;;;;;;;;;;;;;;;5034148;28;19913;-65
2022/11/19 04:50:34;;;;;;;;;;;;;;;;;;5034050;28;19913;-65
2022/11/19 04:52:59;;;;;;;;;;;;;;;;;;5034077;28;19917;-68
2022/11/19 04:55:24;;;;;;;;;;;;;;;;;;5034085;28;19917;-68
2022/11/19 04:57:51;;;;;;;;;;;;;;;;;;5033736;28;19921;-68
2022/11/19 05:00:17;;;;;;;;;;;;;;;;;;5033791;28;19919;-69
2022/11/19 05:02:42;;;;;;;;;;;;;;;;;;5033868;28;20369;-66
2022/11/19 05:05:08;;;;;;;;;;;;;;;;;;5033843;28;19909;-68
2022/11/19 05:07:33;;;;;;;;;;;;;;;;;;5033698;28;19921;-65
2022/11/19 05:09:58;;;;;;;;;;;;;;;;;;5033766;28;19909;-64
2022/11/19 05:12:24;;;;;;;;;;;;;;;;;;5033367;28;19920;-65
2022/11/19 05:14:49;;;;;;;;;;;;;;;;;;5033621;28;19913;-65
2022/11/19 05:17:14;;;;;;;;;;;;;;;;;;5033580;28;19916;-66
2022/11/19 05:19:40;;;;;;;;;;;;;;;;;;5033630;28;19913;-64
2022/11/19 05:22:05;;;;;;;;;;;;;;;;;;5033472;28;20390;-65
2022/11/19 05:24:30;;;;;;;;;;;;;;;;;;5033341;28;20548;-67
2022/11/19 05:26:55;;;;;;;;;;;;;;;;;;5031078;28;20397;-69
2022/11/19 05:29:21;;;;;;;;;;;;;;;;;;5033697;28;19967;-69
2022/11/19 05:31:46;;;;;;;;;;;;;;;;;;5033215;28;19917;-68
2022/11/19 05:34:11;;;;;;;;;;;;;;;;;;5033315;28;20283;-68
2022/11/19 05:36:37;;;;;;;;;;;;;;;;;;5033210;28;20494;-69
2022/11/19 05:39:02;;;;;;;;;;;;;;;;;;5033239;28;20357;-69
2022/11/19 05:41:27;;;;;;;;;;;;;;;;;;5032873;28;20384;-68
2022/11/19 05:43:53;;;;;;;;;;;;;;;;;;5032994;28;19974;-67
2022/11/19 05:46:18;;;;;;;;;;;;;;;;;;5032572;28;19968;-65
2022/11/19 05:48:44;;;;;;;;;;;;;;;;;;5033052;28;19967;-68
2022/11/19 05:51:12;;;;;;;;;;;;;;;;;;5032956;28;19913;-69
2022/11/19 05:53:37;;;;;;;;;;;;;;;;;;5032846;28;19995;-69
2022/11/19 05:56:03;;;;;;;;;;;;;;;;;;5032659;28;19972;-66
2022/11/19 05:58:28;;;;;;;;;;;;;;;;;;5032796;28;20267;-69
2022/11/19 06:00:54;;;;;;;;;;;;;;;;;;5032722;28;20439;-65
2022/11/19 06:03:19;;;;;;;;;;;;;;;;;;5030206;28;20441;-69
2022/11/19 06:05:45;;;;;;;;;;;;;;;;;;5032877;28;19917;-66
2022/11/19 06:08:10;;;;;;;;;;;;;;;;;;5032823;28;20290;-65
2022/11/19 06:10:35;;;;;;;;;;;;;;;;;;5032377;28;20363;-65
2022/11/19 06:13:01;;;;;;;;;;;;;;;;;;5032593;28;19916;-65
2022/11/19 06:15:26;;;;;;;;;;;;;;;;;;5032819;28;19913;-65
2022/11/19 06:17:51;;;;;;;;;;;;;;;;;;5032677;28;19913;-65
2022/11/19 06:20:17;;;;;;;;;;;;;;;;;;5032411;28;19967;-66
2022/11/19 06:22:42;;;;;;;;;;;;;;;;;;5032577;28;19920;-65
2022/11/19 06:25:07;;;;;;;;;;;;;;;;;;5032324;28;20383;-65
2022/11/19 06:27:33;;;;;;;;;;;;;;;;;;5030367;28;19928;-64
2022/11/19 06:29:59;;;;;;;;;;;;;;;;;;5032514;28;19920;-65
2022/11/19 06:32:24;;;;;;;;;;;;;;;;;;5032338;28;19913;-64
2022/11/19 06:34:50;;;;;;;;;;;;;;;;;;5032476;28;19913;-64
2022/11/19 06:37:15;;;;;;;;;;;;;;;;;;5032307;28;19940;-64
2022/11/19 06:39:40;;;;;;;;;;;;;;;;;;5032148;28;19913;-64
2022/11/19 06:44:50;;;;;;;;;;;;;;;;;;5030989;28;19916;-64
2022/11/19 06:47:15;;;;;;;;;;;;;;;;;;5032186;28;19913;-66
2022/11/19 06:49:40;;;;;;;;;;;;;;;;;;5032364;28;19916;-67
2022/11/19 06:52:06;;;;;;;;;;;;;;;;;;5032176;28;19913;-67
2022/11/19 06:54:31;;;;;;;;;;;;;;;;;;5032094;28;19913;-68
2022/11/19 06:56:56;;;;;;;;;;;;;;;;;;5032109;28;19908;-67
2022/11/19 06:59:21;;;;;;;;;;;;;;;;;;5035672;28;20282;-68
2022/11/19 07:01:47;;;;;;;;;;;;;;;;;;5036065;28;20427;-64
2022/11/19 07:04:12;;;;;;;;;;;;;;;;;;5036052;28;19913;-64
2022/11/19 07:06:37;;;;;;;;;;;;;;;;;;5036063;28;19940;-66
2022/11/19 07:09:03;;;;;;;;;;;;;;;;;;5035977;28;20003;-65
2022/11/19 07:11:28;;;;;;;;;;;;;;;;;;5035947;28;19955;-64
2022/11/19 07:13:56;;;;;;;;;;;;;;;;;;5035846;28;19913;-65
2022/11/19 07:16:22;;;;;;;;;;;;;;;;;;5033292;28;20312;-65
2022/11/19 07:18:48;;;;;;;;;;;;;;;;;;5035700;28;19913;-66
2022/11/19 07:21:13;;;;;;;;;;;;;;;;;;5035806;28;20027;-65
2022/11/19 07:23:38;;;;;;;;;;;;;;;;;;5035485;28;19913;-66
2022/11/19 07:26:04;;;;;;;;;;;;;;;;;;5033207;28;19921;-67
2022/11/19 07:28:29;;;;;;;;;;;;;;;;;;5035585;28;19964;-64
2022/11/19 07:30:54;;;;;;;;;;;;;;;;;;5035539;28;19913;-67
2022/11/19 07:33:20;;;;;;;;;;;;;;;;;;5035684;28;19913;-65
2022/11/19 07:35:45;;;;;;;;;;;;;;;;;;5035501;28;19939;-64
2022/11/19 07:38:11;;;;;;;;;;;;;;;;;;5035454;28;20032;-65
2022/11/19 07:40:36;;;;;;;;;;;;;;;;;;5035250;28;19913;-65
2022/11/19 07:43:01;;;;;;;;;;;;;;;;;;5034059;28;19917;-65
2022/11/19 07:45:27;;;;;;;;;;;;;;;;;;5035490;28;19913;-70
2022/11/19 07:47:52;;;;;;;;;;;;;;;;;;5035342;28;19919;-68
2022/11/19 07:50:17;;;;;;;;;;;;;;;;;;5035316;28;19912;-68
2022/11/19 07:52:43;;;;;;;;;;;;;;;;;;5035055;28;20023;-68
2022/11/19 07:55:08;;;;;;;;;;;;;;;;;;5035465;28;19912;-68
2022/11/19 07:57:34;;;;;;;;;;;;;;;;;;5035217;28;19917;-69
2022/11/19 08:00:00;;;;;;;;;;;;;;;;;;5035033;28;19922;-64
2022/11/19 08:02:25;;;;;;;;;;;;;;;;;;5034810;28;20294;-63
2022/11/19 08:04:50;;;;;;;;;;;;;;;;;;5034620;28;20003;-68
2022/11/19 08:07:16;;;;;;;;;;;;;;;;;;5034636;28;19952;-68
2022/11/19 08:09:41;;;;;;;;;;;;;;;;;;5033272;28;19917;-68
2022/11/19 08:12:06;;;;;;;;;;;;;;;;;;5034844;28;19909;-67
2022/11/19 08:14:32;;;;;;;;;;;;;;;;;;5034496;28;19913;-67
2022/11/19 08:19:55;;;;;;;;;;;;;;;;;;4970857;28;20339;-64
2022/11/19 08:22:20;;;;;;;;;;;;;;;;;;4973492;28;19914;-64
2022/11/19 08:24:45;;;;;;;;;;;;;;;;;;4973438;28;19918;-64
2022/11/19 08:27:11;;;;;;;;;;;;;;;;;;4971988;28;19941;-63
2022/11/19 08:29:37;;;;;;;;;;;;;;;;;;4973360;28;19918;-63
2022/11/19 08:32:02;;;;;;;;;;;;;;;;;;4973569;28;19917;-64
2022/11/19 08:34:28;;;;;;;;;;;;;;;;;;4973032;28;20004;-68
2022/11/19 08:36:54;;;;;;;;;;;;;;;;;;4973237;28;19914;-68
2022/11/19 08:39:19;;;;;;;;;;;;;;;;;;4973422;28;19920;-68
2022/11/19 08:44:28;;;;;;;;;;;;;;;;;;4973399;28;19941;-68
2022/11/19 08:46:53;;;;;;;;;;;;;;;;;;4972929;28;20381;-67
2022/11/19 08:49:18;;;;;;;;;;;;;;;;;;4972916;28;19969;-68
2022/11/19 08:51:44;;;;;;;;;;;;;;;;;;4973103;28;19969;-67
2022/11/19 08:54:09;;;;;;;;;;;;;;;;;;4973105;28;20000;-67
2022/11/19 08:56:35;;;;;;;;;;;;;;;;;;5028399;28;19971;-64
2022/11/19 08:59:00;;;;;;;;;;;;;;;;;;5033774;28;19920;-68
2022/11/19 09:01:25;;;;;;;;;;;;;;;;;;5033881;28;19913;-64
2022/11/19 09:03:51;;;;;;;;;;;;;;;;;;5030645;28;19967;-67
2022/11/19 09:06:16;;;;;;;;;;;;;;;;;;5033731;28;19968;-66
2022/11/19 09:08:42;;;;;;;;;;;;;;;;;;5033817;28;19917;-67
2022/11/19 09:11:08;;;;;;;;;;;;;;;;;;5033587;28;20030;-67
2022/11/19 09:13:34;;;;;;;;;;;;;;;;;;5033463;28;19917;-66
2022/11/19 09:15:59;;;;;;;;;;;;;;;;;;5033609;28;20386;-67
2022/11/19 09:18:25;;;;;;;;;;;;;;;;;;5033182;28;19917;-67
2022/11/19 09:20:54;;;;;;;;;;;;;;;;;;5029887;28;19923;-67
2022/11/19 09:23:20;;;;;;;;;;;;;;;;;;5030577;28;19919;-66
2022/11/19 09:25:53;;;;;;;;;;;;;;;;;;5033028;28;20004;-67
2022/11/19 09:28:18;;;;;;;;;;;;;;;;;;5033605;28;19921;-67
2022/11/19 09:30:43;;;;;;;;;;;;;;;;;;5032675;28;19935;-66
2022/11/19 09:33:09;;;;;;;;;;;;;;;;;;5032561;28;20017;-65
2022/11/19 09:35:34;;;;;;;;;;;;;;;;;;5032734;28;19952;-66
2022/11/19 09:37:59;;;;;;;;;;;;;;;;;;5032687;28;19920;-64
2022/11/19 09:40:24;;;;;;;;;;;;;;;;;;5033151;28;19917;-65
2022/11/19 09:42:50;;;;;;;;;;;;;;;;;;5032602;28;19913;-65
2022/11/19 09:45:17;;;;;;;;;;;;;;;;;;5032794;28;19917;-64
2022/11/19 09:48:05;;;;;;;;;;;;;;;;;;5030301;28;20379;-67
2022/11/19 09:50:45;;;;;;;;;;;;;;;;;;5023472;28;19913;-66
2022/11/19 09:53:14;;;;;;;;;;;;;;;;;;5033127;28;19924;-65
2022/11/19 09:55:41;;;;;;;;;;;;;;;;;;5032595;28;20372;-65
2022/11/19 09:58:11;;;;;;;;;;;;;;;;;;5032803;28;19913;-67
2022/11/19 10:00:37;;;;;;;;;;;;;;;;;;5032862;28;19912;-66
2022/11/19 10:03:11;;;;;;;;;;;;;;;;;;5031141;28;20373;-66
2022/11/19 10:05:56;;;;;;;;;;;;;;;;;;5032961;28;19924;-67
2022/11/19 10:08:21;;;;;;;;;;;;;;;;;;5022230;28;19932;-67
2022/11/19 10:11:05;;;;;;;;;;;;;;;;;;5032777;28;20448;-66
2022/11/19 10:13:49;;;;;;;;;;;;;;;;;;5032931;28;19913;-67
2022/11/19 10:16:14;;;;;;;;;;;;;;;;;;5032391;28;20287;-67
2022/11/19 10:18:48;;;;;;;;;;;;;;;;;;5032345;28;19928;-67
2022/11/19 10:21:16;;;;;;;;;;;;;;;;;;5032829;28;19913;-67
2022/11/19 10:23:47;;;;;;;;;;;;;;;;;;5032490;28;19920;-67
2022/11/19 10:26:16;;;;;;;;;;;;;;;;;;5029470;28;20322;-63
2022/11/19 10:28:47;;;;;;;;;;;;;;;;;;5032297;28;19917;-66
2022/11/19 10:31:22;;;;;;;;;;;;;;;;;;5029480;28;19948;-68
2022/11/19 10:33:55;;;;;;;;;;;;;;;;;;5036117;28;20011;-66
2022/11/19 10:36:24;;;;;;;;;;;;;;;;;;5037014;28;19963;-66
2022/11/19 10:38:52;;;;;;;;;;;;;;;;;;5036845;28;20376;-66
2022/11/19 10:41:22;;;;;;;;;;;;;;;;;;5036740;28;19913;-67
2022/11/19 10:43:54;;;;;;;;;;;;;;;;;;5036404;28;20421;-66
2022/11/19 10:46:22;;;;;;;;;;;;;;;;;;5036626;28;19917;-64
2022/11/19 10:48:53;;;;;;;;;;;;;;;;;;5036400;28;20016;-66
2022/11/19 10:51:24;;;;;;;;;;;;;;;;;;5034335;28;19924;-67
2022/11/19 10:53:53;;;;;;;;;;;;;;;;;;5036159;28;19913;-67
2022/11/19 10:56:21;;;;;;;;;;;;;;;;;;5036138;28;19966;-63
2022/11/19 10:58:46;;;;;;;;;;;;;;;;;;5036231;28;19913;-64
2022/11/19 11:01:15;;;;;;;;;;;;;;;;;;5035783;28;19913;-67
2022/11/19 11:03:43;;;;;;;;;;;;;;;;;;5035912;28;19970;-65
2022/11/19 11:06:09;;;;;;;;;;;;;;;;;;5035866;28;19948;-66
2022/11/19 11:08:50;;;;;;;;;;;;;;;;;;5036039;28;19967;-65
2022/11/19 11:15:15;;;;;;;;;;;;;;;;;;5023936;28;20294;-68
2022/11/19 11:17:23;;;;;;;;;;;;;;;;;;5027032;28;19948;-65
2022/11/19 11:19:56;;;;;;;;;;;;;;;;;;5020499;28;20367;-67
2022/11/19 11:22:22;;;;;;;;;;;;;;;;;;5035767;28;19917;-66
2022/11/19 11:24:47;;;;;;;;;;;;;;;;;;5034087;28;19917;-64
2022/11/19 11:27:25;;;;;;;;;;;;;;;;;;5035808;28;20019;-63
2022/11/19 11:30:03;;;;;;;;;;;;;;;;;;5020362;28;19917;-64
2022/11/19 11:32:29;;;;;;;;;;;;;;;;;;5035981;28;19913;-67
2022/11/19 11:34:55;;;;;;;;;;;;;;;;;;5035633;28;19917;-66
2022/11/19 11:37:20;;;;;;;;;;;;;;;;;;5035842;28;20435;-63
2022/11/19 11:39:48;;;;;;;;;;;;;;;;;;5035118;28;19943;-67
2022/11/19 11:42:18;;;;;;;;;;;;;;;;;;5034952;28;19913;-66
2022/11/19 11:44:51;;;;;;;;;;;;;;;;;;5034359;28;20446;-65
2022/11/19 11:47:18;;;;;;;;;;;;;;;;;;5035600;28;20260;-66
2022/11/19 11:49:45;;;;;;;;;;;;;;;;;;5035379;28;19988;-64
2022/11/19 11:52:10;;;;;;;;;;;;;;;;;;5035522;28;19913;-63
2022/11/19 11:54:37;;;;;;;;;;;;;;;;;;5035505;28;19909;-66
2022/11/19 11:57:14;;;;;;;;;;;;;;;;;;5035460;28;19970;-63
2022/11/19 11:59:39;;;;;;;;;;;;;;;;;;5035270;28;19913;-63
2022/11/19 12:02:06;;;;;;;;;;;;;;;;;;5035359;28;20003;-64
2022/11/19 12:04:31;;;;;;;;;;;;;;;;;;5035460;28;19924;-66
2022/11/19 12:07:03;;;;;;;;;;;;;;;;;;5035247;28;19913;-63
2022/11/19 12:09:43;;;;;;;;;;;;;;;;;;5035237;28;19912;-62
2022/11/19 12:12:20;;;;;;;;;;;;;;;;;;5034913;28;19913;-64
2022/11/19 12:14:54;;;;;;;;;;;;;;;;;;5035158;28;19920;-65
2022/11/19 12:17:31;;;;;;;;;;;;;;;;;;5035236;28;20046;-63
2022/11/19 12:20:12;;;;;;;;;;;;;;;;;;5029681;28;19917;-65
2022/11/19 12:22:49;;;;;;;;;;;;;;;;;;5034909;28;19920;-61
2022/11/19 12:25:17;;;;;;;;;;;;;;;;;;5034233;28;20367;-62
2022/11/19 12:28:01;;;;;;;;;;;;;;;;;;5033212;28;19917;-66
2022/11/19 12:30:36;;;;;;;;;;;;;;;;;;5034659;28;19912;-66
2022/11/19 12:33:02;;;;;;;;;;;;;;;;;;5034943;28;19923;-65
2022/11/19 12:35:46;;;;;;;;;;;;;;;;;;5034554;28;20362;-65
2022/11/19 12:38:11;;;;;;;;;;;;;;;;;;5033519;28;19913;-64
2022/11/19 12:40:48;;;;;;;;;;;;;;;;;;5034694;28;20360;-66
2022/11/19 12:43:16;;;;;;;;;;;;;;;;;;5034676;28;19936;-63
2022/11/19 12:45:49;;;;;;;;;;;;;;;;;;5034280;28;19917;-67
2022/11/19 12:48:22;;;;;;;;;;;;;;;;;;5034406;28;20027;-62
2022/11/19 12:51:05;;;;;;;;;;;;;;;;;;5034593;28;19909;-66
2022/11/19 12:53:43;;;;;;;;;;;;;;;;;;5034652;28;19917;-66
2022/11/19 12:56:23;;;;;;;;;;;;;;;;;;5031835;28;19959;-67
2022/11/19 12:59:03;;;;;;;;;;;;;;;;;;5034284;28;19958;-68
2022/11/19 13:01:32;;;;;;;;;;;;;;;;;;5034156;28;19920;-66
2022/11/19 13:04:00;;;;;;;;;;;;;;;;;;5034171;28;19924;-66
2022/11/19 13:06:43;;;;;;;;;;;;;;;;;;5033792;28;19913;-66
2022/11/19 13:09:14;;;;;;;;;;;;;;;;;;5034094;28;19939;-64
2022/11/19 13:11:42;;;;;;;;;;;;;;;;;;5033764;28;19919;-67
2022/11/19 13:14:33;;;;;;;;;;;;;;;;;;5033432;28;20379;-66
2022/11/19 13:17:00;;;;;;;;;;;;;;;;;;4973029;28;19914;-63
2022/11/19 13:19:31;;;;;;;;;;;;;;;;;;4973081;28;19914;-63
2022/11/19 13:21:56;;;;;;;;;;;;;;;;;;4972115;28;19913;-68
2022/11/19 13:24:28;;;;;;;;;;;;;;;;;;4970100;28;20061;-63
2022/11/19 13:26:55;;;;;;;;;;;;;;;;;;4970431;28;20013;-63
2022/11/19 13:29:20;;;;;;;;;;;;;;;;;;4970770;28;19914;-66
2022/11/19 13:31:49;;;;;;;;;;;;;;;;;;4986703;28;20120;-62
2022/11/19 13:34:23;;;;;;;;;;;;;;;;;;4970613;28;19910;-67
2022/11/19 13:36:57;;;;;;;;;;;;;;;;;;4970599;28;19914;-66
2022/11/19 13:39:27;;;;;;;;;;;;;;;;;;4972539;28;19918;-63
2022/11/19 13:44:39;;;;;;;;;;;;;;;;;;4972776;28;19932;-65
2022/11/19 13:47:25;;;;;;;;;;;;;;;;;;4972583;28;19914;-65
2022/11/19 13:49:53;;;;;;;;;;;;;;;;;;4972285;28;20313;-64
2022/11/19 13:52:33;;;;;;;;;;;;;;;;;;4972503;28;20004;-66
2022/11/19 13:54:59;;;;;;;;;;;;;;;;;;5013338;28;20026;-66
2022/11/19 13:57:30;;;;;;;;;;;;;;;;;;5013587;28;19921;-65
2022/11/19 14:00:06;;;;;;;;;;;;;;;;;;5013399;28;19920;-66
2022/11/19 14:02:44;;;;;;;;;;;;;;;;;;5013524;28;19949;-67
2022/11/19 14:05:27;;;;;;;;;;;;;;;;;;5013300;28;19920;-65
2022/11/19 14:07:58;;;;;;;;;;;;;;;;;;5012973;28;19914;-66
2022/11/19 14:10:24;;;;;;;;;;;;;;;;;;5013509;28;19945;-64
2022/11/19 14:12:49;;;;;;;;;;;;;;;;;;5013386;28;19941;-65
2022/11/19 14:27:11;;;;;;;;;;;;;;;;;;5025080;28;20382;-66
2022/11/19 14:29:57;;;;;;;;;;;;;;;;;;5032941;28;19970;-65
2022/11/19 14:32:35;;;;;;;;;;;;;;;;;;5032558;28;19923;-66
2022/11/19 14:35:00;;;;;;;;;;;;;;;;;;5032910;28;20346;-66
2022/11/19 14:37:28;;;;;;;;;;;;;;;;;;5032535;28;19913;-63
2022/11/19 14:39:58;;;;;;;;;;;;;;;;;;5032768;28;19913;-68
2022/11/19 14:42:23;;;;;;;;;;;;;;;;;;5032928;28;19975;-64
2022/11/19 14:44:57;;;;;;;;;;;;;;;;;;5031482;28;20363;-65
2022/11/19 14:47:23;;;;;;;;;;;;;;;;;;5032793;28;19917;-66
2022/11/19 14:49:49;;;;;;;;;;;;;;;;;;5032801;28;19959;-69
2022/11/19 14:52:20;;;;;;;;;;;;;;;;;;5031204;28;19924;-67
2022/11/19 14:54:51;;;;;;;;;;;;;;;;;;5032753;28;19948;-66
2022/11/19 14:57:22;;;;;;;;;;;;;;;;;;5032893;28;20260;-66
2022/11/19 14:59:49;;;;;;;;;;;;;;;;;;5032562;28;19917;-66
2022/11/19 15:02:15;;;;;;;;;;;;;;;;;;5032775;28;20027;-65
2022/11/19 15:04:43;;;;;;;;;;;;;;;;;;5032605;28;19917;-64
2022/11/19 15:07:15;;;;;;;;;;;;;;;;;;5032311;28;19970;-66
2022/11/19 15:09:59;;;;;;;;;;;;;;;;;;5032522;28;19913;-67
2022/11/19 15:12:32;;;;;;;;;;;;;;;;;;5032495;28;19913;-66
2022/11/19 15:15:17;;;;;;;;;;;;;;;;;;5032654;28;19913;-65
2022/11/19 15:17:44;;;;;;;;;;;;;;;;;;5032313;28;20321;-66
2022/11/19 15:20:25;;;;;;;;;;;;;;;;;;5035211;28;19913;-66
2022/11/19 15:23:02;;;;;;;;;;;;;;;;;;5036245;28;19913;-66
2022/11/19 15:25:40;;;;;;;;;;;;;;;;;;5035853;28;19917;-63
2022/11/19 15:28:24;;;;;;;;;;;;;;;;;;5036025;28;19917;-64
2022/11/19 15:30:50;;;;;;;;;;;;;;;;;;5036039;28;19909;-66
2022/11/19 15:33:34;;;;;;;;;;;;;;;;;;5036137;28;20004;-66
2022/11/19 15:36:17;;;;;;;;;;;;;;;;;;5035737;28;20318;-66
2022/11/19 15:38:50;;;;;;;;;;;;;;;;;;5035982;28;19913;-65
2022/11/19 15:41:18;;;;;;;;;;;;;;;;;;5035849;28;19920;-66
2022/11/19 15:43:47;;;;;;;;;;;;;;;;;;5035846;28;19913;-66
2022/11/19 15:46:18;;;;;;;;;;;;;;;;;;5035747;28;19923;-64
2022/11/19 15:49:03;;;;;;;;;;;;;;;;;;5035774;28;19913;-66
2022/11/19 15:51:33;;;;;;;;;;;;;;;;;;5035460;28;19913;-66
2022/11/19 15:54:03;;;;;;;;;;;;;;;;;;5035606;28;19913;-63
2022/11/19 15:56:30;;;;;;;;;;;;;;;;;;5035526;28;19929;-63
2022/11/19 15:58:56;;;;;;;;;;;;;;;;;;5035548;28;20367;-66
2022/11/19 16:01:21;;;;;;;;;;;;;;;;;;5035379;28;19923;-63
2022/11/19 16:03:49;;;;;;;;;;;;;;;;;;5035115;28;19920;-63
2022/11/19 16:06:16;;;;;;;;;;;;;;;;;;5034156;28;20349;-67
2022/11/19 16:08:46;;;;;;;;;;;;;;;;;;5035450;28;19920;-63
2022/11/19 16:19:29;;;;;;;;;;;;;;;;;;5035038;28;19919;-63
2022/11/19 16:21:59;;;;;;;;;;;;;;;;;;5033744;28;19917;-64
2022/11/19 16:27:10;;;;;;;;;;;;;;;;;;5034702;28;19959;-65
2022/11/19 16:29:39;;;;;;;;;;;;;;;;;;5034671;28;19909;-65
2022/11/19 16:32:06;;;;;;;;;;;;;;;;;;5034854;28;20280;-68
2022/11/19 16:34:32;;;;;;;;;;;;;;;;;;5034614;28;19909;-65
2022/11/19 16:36:58;;;;;;;;;;;;;;;;;;5034773;28;20348;-64
2022/11/19 16:39:28;;;;;;;;;;;;;;;;;;5034896;28;19913;-65
2022/11/19 16:42:16;;;;;;;;;;;;;;;;;;5034709;28;20339;-66
2022/11/19 16:44:46;;;;;;;;;;;;;;;;;;5034850;28;19913;-65
2022/11/19 16:47:18;;;;;;;;;;;;;;;;;;5034544;28;19913;-67
2022/11/19 16:49:46;;;;;;;;;;;;;;;;;;5034540;28;20390;-67
2022/11/19 16:52:31;;;;;;;;;;;;;;;;;;5034613;28;19913;-67
2022/11/19 16:54:57;;;;;;;;;;;;;;;;;;5033065;28;19913;-64
2022/11/19 16:57:24;;;;;;;;;;;;;;;;;;5034453;28;19936;-66
2022/11/19 16:59:53;;;;;;;;;;;;;;;;;;5034267;28;19913;-67
2022/11/19 17:02:20;;;;;;;;;;;;;;;;;;5034001;28;19913;-65
2022/11/19 17:04:49;;;;;;;;;;;;;;;;;;5034318;28;19913;-67
2022/11/19 17:07:41;;;;;;;;;;;;;;;;;;5034288;28;20003;-67
2022/11/19 17:10:09;;;;;;;;;;;;;;;;;;5046359;28;20070;-68
2022/11/19 17:12:36;;;;;;;;;;;;;;;;;;5034107;28;19913;-68
2022/11/19 17:15:21;;;;;;;;;;;;;;;;;;5034067;28;20363;-68
2022/11/19 17:17:46;;;;;;;;;;;;;;;;;;5033995;28;20334;-69
2022/11/19 17:20:24;;;;;;;;;;;;;;;;;;5033846;28;19916;-69
2022/11/19 17:22:49;;;;;;;;;;;;;;;;;;5033907;28;19913;-67
2022/11/19 17:25:14;;;;;;;;;;;;;;;;;;5030798;28;19916;-68
2022/11/19 17:27:40;;;;;;;;;;;;;;;;;;5032863;28;20011;-69
2022/11/19 17:30:19;;;;;;;;;;;;;;;;;;5032930;28;19909;-68
2022/11/19 17:32:46;;;;;;;;;;;;;;;;;;5032851;28;19925;-67
2022/11/19 17:35:30;;;;;;;;;;;;;;;;;;5030791;28;20413;-68
2022/11/19 17:37:57;;;;;;;;;;;;;;;;;;5031312;28;20281;-67
2022/11/19 17:40:23;;;;;;;;;;;;;;;;;;5032999;28;19917;-68
2022/11/19 17:45:32;;;;;;;;;;;;;;;;;;5028323;28;19991;-67
2022/11/19 17:47:57;;;;;;;;;;;;;;;;;;5027646;28;19925;-64